Latest Weather Observations for Kingaroy

IDQ60901

Issued at 4:51 pm EST Friday 18 August 2017 (issued every 10 minutes, with the page automatically refreshed every 10 minutes)

About weather observations | Map of Brisbane area stations | Latest observations for Brisbane area | Other Formats
Station Details ID: 040922 Name: KINGAROY AIRPORT Lat: -26.57 Lon: 151.84 Height: 433.67 m
Data from the previous 72 hours. | See also: Recent months at Kingaroy
Date/Time
EST
Temp
°C
App
Temp
°C
Dew
Point
°C
Rel
Hum
%
Delta-T
°C
Wind Press
QNH
hPa
Press
MSL
hPa
Rain since
9am
mm
Dir  Spd
km/h
Gust
km/h
Spd
kts
Gust
kts
18/04:30pm 21.0 12.4 -8.4 13 11.4 WSW 30 46 16 25 1015.5 1015.2 0.0
18/04:00pm 21.9 13.0 -6.8 14 11.5 WSW 32 50 17 27 1015.3 1015.0 0.0
18/03:54pm 21.7 12.7 -8.9 12 11.8 WSW 32 50 17 27 1015.2 1014.9 0.0
18/03:30pm 21.9 12.7 -8.7 12 11.9 W 33 50 18 27 1015.0 1014.6 0.0
18/03:11pm 22.5 14.3 -7.3 13 11.9 WSW 28 46 15 25 1015.0 1014.6 0.0
18/03:00pm 22.5 13.3 -8.3 12 12.1 WSW 33 46 18 25 1015.0 1014.6 0.0
18/02:47pm 22.4 13.5 -7.3 13 11.9 WSW 32 50 17 27 1015.1 1014.7 0.0
18/02:30pm 22.5 13.5 -8.3 12 12.1 W 32 44 17 24 1015.1 1014.7 0.0
18/02:00pm 22.2 13.8 -5.6 15 11.5 WSW 30 48 16 26 1015.3 1015.0 0.0
18/01:52pm 22.7 14.7 -6.1 14 11.8 WSW 28 46 15 25 1015.3 1015.0 0.0
18/01:30pm 22.5 13.7 -6.3 14 11.8 WSW 32 48 17 26 1015.6 1015.3 0.0
18/01:04pm 22.4 13.7 -5.5 15 11.6 W 32 50 17 27 1015.6 1015.3 0.0
18/01:00pm 22.4 13.5 -5.5 15 11.6 W 33 50 18 27 1015.8 1015.5 0.0
18/12:32pm 21.7 13.8 -4.4 17 11.0 WSW 28 46 15 25 1016.4 1016.0 0.0
18/12:30pm 22.1 14.7 -3.3 18 11.0 WSW 26 46 14 25 1016.4 1016.0 0.0
18/12:09pm 21.6 13.1 -3.0 19 10.6 SW 32 50 17 27 1016.6 1016.2 0.0
18/12:00pm 21.2 12.7 -3.3 19 10.5 SW 32 44 17 24 1016.9 1016.5 0.0
18/11:30am 21.0 12.4 -4.2 18 10.6 WSW 32 43 17 23 1017.3 1017.0 0.0
18/11:00am 20.7 11.9 -4.4 18 10.4 SW 33 46 18 25 1017.6 1017.3 0.0
18/10:30am 20.5 12.2 -1.9 22 9.8 SW 32 44 17 24 1018.0 1017.7 0.0
18/10:00am 20.2 13.1 -1.6 23 9.5 SW 26 39 14 21 1018.4 1018.1 0.0
18/09:41am 19.6 11.2 -2.1 23 9.4 SW 32 52 17 28 1018.5 1018.2 0.0
18/09:30am 19.6 10.7 -2.1 23 9.4 SW 35 46 19 25 1018.5 1018.2 0.0
18/09:00am 19.3 11.7 -2.3 23 9.3 WSW 28 46 15 25 1018.4 1018.1 0.0
18/08:57am 19.1 11.4 -3.1 22 9.4 SW 28 46 15 25 1018.4 1018.1 0.0
18/08:30am 18.9 13.9 -1.5 25 8.9 WSW 15 24 8 13 1018.2 1017.9 0.0
18/08:00am 17.4 13.3 -0.3 30 7.8 WSW 11 19 6 10 1018.0 1017.7 0.0
18/07:30am 15.9 11.3 -0.8 32 7.2 SW 13 20 7 11 1017.7 1017.4 0.0
18/07:00am 13.7 9.3 0.4 40 5.7 SW 13 15 7 8 1017.2 1016.9 0.0
18/06:30am 9.4 6.0 1.6 58 3.3 SW 9 15 5 8 1017.0 1016.6 0.0
18/06:00am 7.4 4.0 1.7 67 2.4 SW 9 11 5 6 1016.7 1016.3 0.0
18/05:30am 7.4 4.0 2.1 69 2.2 SSW 9 11 5 6 1016.4 1016.0 0.0
18/05:00am 8.7 5.3 2.1 63 2.8 SSW 9 9 5 5 1015.9 1015.6 0.0
18/04:30am 9.0 5.3 2.6 64 2.8 SW 11 13 6 7 1015.7 1015.4 0.0
18/04:00am 8.9 6.0 2.7 65 2.7 SSW 7 9 4 5 1015.5 1015.2 0.0
18/03:30am 9.2 6.4 3.0 65 2.7 SSW 7 7 4 4 1015.4 1015.1 0.0
18/03:00am 9.7 6.2 3.4 65 2.8 SSW 11 15 6 8 1015.4 1015.1 0.0
18/02:30am 10.4 8.2 3.4 62 3.1 S 4 9 2 5 1015.3 1015.0 0.0
18/02:00am 9.6 8.2 3.4 65 2.8 CALM 0 4 0 2 1015.3 1015.0 0.0
18/01:30am 10.6 9.3 3.9 63 3.0 CALM 0 6 0 3 1015.4 1015.1 0.0
18/01:00am 11.1 9.4 4.1 62 3.2 S 2 6 1 3 1015.5 1015.2 0.0
18/12:30am 11.8 9.2 4.1 59 3.5 SSW 7 7 4 4 1015.6 1015.3 0.0
18/12:00am 10.6 7.8 5.2 69 2.5 SSW 9 11 5 6 1015.6 1015.3 0.0
 
Date/Time
EST
Temp
°C
App
Temp
°C
Dew
Point
°C
Rel
Hum
%
Delta-T
°C
Wind Press
QNH
hPa
Press
MSL
hPa
Rain since
9am
mm
Dir  Spd
km/h
Gust
km/h
Spd
kts
Gust
kts
17/11:30pm 10.5 9.1 5.3 70 2.4 W 2 7 1 4 1015.7 1015.4 0.0
17/11:00pm 11.5 10.3 4.7 63 3.2 CALM 0 0 0 0 1015.7 1015.4 0.0
17/10:30pm 12.3 11.1 4.8 60 3.5 CALM 0 0 0 0 1015.6 1015.3 0.0
17/10:00pm 13.2 12.2 5.4 59 3.7 CALM 0 0 0 0 1015.5 1015.2 0.0
17/09:30pm 13.7 12.5 4.8 55 4.2 CALM 0 0 0 0 1015.3 1015.0 0.0
17/09:00pm 14.5 13.4 5.3 54 4.4 CALM 0 0 0 0 1015.2 1014.9 0.0
17/08:30pm 16.2 15.2 5.8 50 5.1 CALM 0 0 0 0 1014.9 1014.5 0.0
17/08:00pm 16.8 15.6 4.8 45 5.8 CALM 0 0 0 0 1014.7 1014.3 0.0
17/07:30pm 21.1 19.0 5.9 37 7.8 WSW 6 7 3 4 1014.4 1014.0 0.0
17/07:00pm 22.2 19.6 6.0 35 8.4 WSW 9 13 5 7 1014.0 1013.6 0.0
17/06:30pm 22.9 19.5 5.8 33 8.8 WSW 13 17 7 9 1013.4 1013.1 0.0
17/06:00pm 24.7 20.8 5.5 29 10.0 WSW 15 20 8 11 1012.8 1012.4 0.0
17/05:30pm 25.8 21.8 4.9 26 10.8 WSW 15 20 8 11 1012.3 1011.9 0.0
17/05:00pm 27.4 23.0 4.5 23 11.9 W 17 24 9 13 1011.9 1011.5 0.0
17/04:30pm 28.3 23.5 4.6 22 12.4 W 19 30 10 16 1011.5 1011.1 0.0
17/04:00pm 28.7 23.4 4.9 22 12.5 W 22 35 12 19 1011.2 1010.9 0.0
17/03:30pm 29.0 24.0 6.4 24 12.2 WNW 22 32 12 17 1011.1 1010.7 0.0
17/03:00pm 28.7 22.4 5.5 23 12.3 WNW 28 44 15 24 1011.1 1010.7 0.0
17/02:30pm 28.9 23.8 7.5 26 11.8 WNW 24 33 13 18 1011.1 1010.7 0.0
17/02:00pm 29.1 23.1 7.1 25 12.0 WNW 28 37 15 20 1011.6 1011.2 0.0
17/01:30pm 28.4 24.2 8.1 28 11.2 W 20 33 11 18 1012.0 1011.6 0.0
17/01:00pm 27.9 23.3 8.2 29 10.9 WNW 22 32 12 17 1012.4 1012.0 0.0
17/12:30pm 27.0 22.8 8.4 31 10.3 WNW 20 32 11 17 1012.9 1012.5 0.0
17/12:00pm 25.8 21.8 9.2 35 9.3 WNW 20 32 11 17 1013.3 1013.0 0.0
17/11:30am 25.2 21.3 9.5 37 8.8 W 20 32 11 17 1014.0 1013.6 0.0
17/11:00am 25.0 19.9 9.3 37 8.7 WNW 26 35 14 19 1014.4 1014.0 0.0
17/10:30am 24.3 19.7 10.9 43 7.6 NW 26 35 14 19 1014.9 1014.5 0.0
17/10:00am 23.8 19.4 12.8 50 6.4 WNW 28 37 15 20 1015.3 1015.0 0.0
17/09:30am 21.8 19.2 13.9 61 4.7 NW 20 30 11 16 1015.6 1015.3 0.0
17/09:00am 19.4 17.6 14.4 73 3.0 NW 17 24 9 13 1015.7 1015.4 0.0
17/08:30am 17.0 16.0 14.6 86 1.4 NW 13 20 7 11 1015.6 1015.3 0.0
17/08:00am 14.3 14.7 13.8 97 0.3 NW 4 7 2 4 1015.8 1015.5 0.0
17/07:30am 12.3 12.9 11.8 97 0.3 CALM 0 0 0 0 1015.5 1015.2 0.0
17/07:00am 9.1 8.6 8.0 93 0.5 CALM 0 0 0 0 1015.1 1014.7 0.0
17/06:56am 9.3 8.9 8.2 93 0.5 CALM 0 0 0 0 1015.1 1014.7 0.0
17/06:30am 9.0 8.6 8.1 94 0.4 CALM 0 0 0 0 1014.8 1014.4 0.0
17/06:00am 9.2 7.6 8.1 93 0.5 E 6 6 3 3 1014.6 1014.2 0.0
17/05:30am 9.5 9.1 8.4 93 0.5 CALM 0 0 0 0 1014.2 1013.8 0.0
17/05:00am 10.2 10.0 9.0 92 0.6 CALM 0 0 0 0 1014.1 1013.7 0.0
17/04:30am 9.7 7.7 8.6 93 0.6 SSW 9 13 5 7 1013.7 1013.4 0.0
17/04:00am 10.7 10.5 9.0 89 0.9 CALM 0 0 0 0 1013.4 1013.1 0.0
17/03:30am 11.7 11.9 10.4 92 0.7 CALM 0 0 0 0 1013.4 1013.1 0.0
17/03:00am 12.0 12.2 10.6 91 0.7 CALM 0 0 0 0 1013.4 1013.1 0.0
17/02:30am 12.7 13.1 11.1 90 0.9 CALM 0 0 0 0 1013.7 1013.4 0.0
17/02:00am 13.9 14.3 11.4 85 1.4 CALM 0 0 0 0 1014.1 1013.7 0.0
17/01:30am 14.6 15.2 11.9 84 1.5 CALM 0 0 0 0 1014.1 1013.7 0.0
17/01:00am 14.7 15.1 11.1 79 2.0 CALM 0 0 0 0 1014.2 1013.8 0.0
17/12:30am 15.2 15.6 11.2 77 2.2 CALM 0 0 0 0 1014.5 1014.1 0.0
17/12:00am 14.8 14.3 9.4 70 2.8 N 2 6 1 3 1014.7 1014.3 0.0
 
Date/Time
EST
Temp
°C
App
Temp
°C
Dew
Point
°C
Rel
Hum
%
Delta-T
°C
Wind Press
QNH
hPa
Press
MSL
hPa
Rain since
9am
mm
Dir  Spd
km/h
Gust
km/h
Spd
kts
Gust
kts
16/11:30pm 15.8 14.3 9.0 64 3.6 NNW 7 9 4 5 1014.6 1014.2 0.0
16/11:00pm 17.0 15.5 10.4 65 3.6 NNW 9 13 5 7 1014.6 1014.2 0.0
16/10:30pm 17.0 15.0 10.1 64 3.7 NNW 11 13 6 7 1014.7 1014.3 0.0
16/10:00pm 17.1 14.9 9.3 60 4.1 NNW 11 11 6 6 1014.7 1014.3 0.0
16/09:30pm 18.3 16.2 9.9 58 4.6 NNW 11 13 6 7 1014.5 1014.1 0.0
16/09:00pm 18.5 16.7 9.6 56 4.8 NNW 9 11 5 6 1014.3 1013.9 0.0
16/08:30pm 18.1 16.3 9.5 57 4.6 NW 9 11 5 6 1014.2 1013.8 0.0
16/08:00pm 18.8 16.9 9.0 53 5.2 NNW 9 11 5 6 1014.0 1013.6 0.0
16/07:30pm 19.9 18.6 10.0 53 5.4 NW 7 9 4 5 1013.7 1013.4 0.0
16/07:00pm 19.7 18.2 9.0 50 5.7 NW 7 9 4 5 1013.2 1012.9 0.0
16/06:30pm 22.6 19.7 9.7 44 7.1 N 15 20 8 11 1012.8 1012.4 0.0
16/06:00pm 23.5 20.2 9.5 41 7.8 N 17 20 9 11 1012.5 1012.1 0.0
16/05:30pm 24.5 20.5 8.9 37 8.6 N 20 24 11 13 1012.2 1011.8 0.0
16/05:00pm 25.8 21.0 8.8 34 9.4 NNW 24 33 13 18 1012.4 1012.0 0.0
16/04:30pm 26.8 22.0 8.7 32 10.0 NNW 24 32 13 17 1012.1 1011.7 0.0
16/04:00pm 27.3 22.1 8.7 31 10.4 NNW 26 35 14 19 1012.0 1011.6 0.0
16/03:30pm 27.7 22.5 9.0 31 10.5 NNW 26 37 14 20 1011.8 1011.4 0.0
16/03:00pm 27.9 22.5 8.2 29 10.9 NW 26 37 14 20 1012.0 1011.6 0.0
16/02:30pm 27.8 22.0 8.1 29 10.9 NNW 28 43 15 23 1012.1 1011.7 0.0
16/02:00pm 28.3 22.9 8.1 28 11.2 NW 26 39 14 21 1012.5 1012.1 0.0
16/01:30pm 27.7 23.2 8.6 30 10.6 NW 22 35 12 19 1012.8 1012.4 0.0
16/01:00pm 28.2 23.6 9.5 31 10.6 NNW 24 44 13 24 1013.3 1013.0 0.0
16/12:30pm 26.9 21.6 8.4 31 10.2 NNW 26 37 14 20 1014.0 1013.6 0.0
16/12:00pm 26.9 21.4 9.3 33 9.9 NNW 28 41 15 22 1014.7 1014.3 0.0
16/11:30am 26.1 19.7 8.6 33 9.7 NW 32 43 17 23 1015.2 1014.9 0.0
16/11:00am 25.0 18.5 8.1 34 9.2 NNW 32 43 17 23 1015.7 1015.4 0.0
16/10:30am 23.6 17.7 7.7 36 8.5 NNW 28 35 15 19 1016.5 1016.1 0.0
16/10:00am 22.7 17.4 6.9 36 8.3 NW 24 32 13 17 1017.1 1016.7 0.0
16/09:30am 21.7 17.2 6.0 36 8.1 NW 19 24 10 13 1017.5 1017.2 0.0
16/09:00am 19.3 17.0 7.4 46 6.2 NW 9 15 5 8 1017.7 1017.4 0.0
16/08:30am 16.0 14.1 6.7 54 4.7 NW 6 7 3 4 1017.6 1017.3 0.0
16/08:00am 12.4 11.6 6.5 67 2.9 CALM 0 0 0 0 1017.4 1017.1 0.0
16/07:30am 8.5 7.4 5.1 79 1.6 CALM 0 0 0 0 1017.1 1016.7 0.0
16/07:00am 6.0 4.5 3.0 81 1.3 CALM 0 4 0 2 1017.1 1016.7 0.0
16/06:30am 5.7 4.2 3.0 83 1.1 CALM 0 0 0 0 1016.8 1016.4 0.0
16/06:00am 5.2 2.4 2.2 81 1.2 SSW 6 7 3 4 1016.5 1016.1 0.0
16/05:30am 5.8 4.3 3.1 83 1.2 CALM 0 0 0 0 1016.0 1015.7 0.0
16/05:00am 5.9 3.2 2.7 80 1.4 E 6 7 3 4 1015.8 1015.5 0.0
16/04:30am 6.4 4.9 3.0 79 1.5 CALM 0 0 0 0 1016.0 1015.7 0.0
16/04:00am 6.3 4.7 2.6 77 1.6 CALM 0 0 0 0 1015.8 1015.5 0.0
16/03:30am 6.8 5.3 3.2 78 1.6 CALM 0 0 0 0 1015.7 1015.4 0.0
16/03:00am 6.8 4.1 2.9 76 1.7 SSW 6 7 3 4 1015.7 1015.4 0.0
16/02:30am 6.8 3.5 2.5 74 1.8 S 9 11 5 6 1015.7 1015.4 0.0
16/02:00am 8.0 5.4 3.3 72 2.1 S 6 9 3 5 1015.9 1015.6 0.0
16/01:30am 8.2 5.2 3.9 74 1.9 S 9 11 5 6 1016.1 1015.8 0.0
16/01:00am 9.6 7.0 4.0 68 2.5 E 7 9 4 5 1016.7 1016.3 0.0
16/12:30am 10.3 8.1 3.3 62 3.1 S 4 7 2 4 1017.1 1016.7 0.0
16/12:00am 11.2 9.8 3.7 60 3.4 CALM 0 0 0 0 1017.2 1016.9 0.0
 
Date/Time
EST
Temp
°C
App
Temp
°C
Dew
Point
°C
Rel
Hum
%
Delta-T
°C
Wind Press
QNH
hPa
Press
MSL
hPa
Rain since
9am
mm
Dir  Spd
km/h
Gust
km/h
Spd
kts
Gust
kts
15/11:30pm 13.2 12.2 5.4 59 3.7 CALM 0 0 0 0 1017.3 1017.0 0.0
15/11:00pm 14.4 13.0 5.5 55 4.3 SE 2 6 1 3 1017.1 1016.7 0.0
15/10:30pm 15.0 14.0 5.5 53 4.6 CALM 0 0 0 0 1017.0 1016.6 0.0
15/10:00pm 16.5 14.1 5.2 47 5.5 ENE 7 11 4 6 1017.0 1016.6 0.0
15/09:30pm 16.8 14.4 4.2 43 6.0 ENE 6 9 3 5 1016.9 1016.5 0.0
15/09:00pm 18.1 15.4 3.9 39 6.8 NE 7 13 4 7 1016.8 1016.4 0.0
15/08:30pm 19.6 15.4 3.7 35 7.7 NNE 15 24 8 13 1016.7 1016.3 0.0
15/08:00pm 20.2 15.9 3.4 33 8.1 NNE 15 22 8 12 1016.6 1016.2 0.0
15/07:30pm 19.2 16.3 2.6 33 7.9 NE 7 13 4 7 1016.6 1016.2 0.0
15/07:00pm 20.3 16.7 3.1 32 8.3 NE 11 15 6 8 1016.2 1015.9 0.0
15/06:30pm 20.6 17.4 3.3 32 8.4 NE 9 15 5 8 1016.1 1015.8 0.0
15/06:00pm 20.7 17.6 1.6 28 9.0 NE 7 13 4 7 1015.9 1015.6 0.0
15/05:30pm 23.1 20.2 1.5 24 10.3 ENE 6 9 3 5 1015.6 1015.3 0.0
15/05:00pm 25.2 21.7 1.3 21 11.5 NE 9 15 5 8 1015.6 1015.3 0.0

Latest Capital City Observations: Canberra | Sydney | Melbourne | Brisbane | Adelaide | Perth | Hobart | Darwin

Other Formats:

Comma delimited format used in spreadsheet applications
http://www.bom.gov.au/fwo/IDQ60901/IDQ60901.94549.axf

JavaScript Object Notation format (JSON) in row-major order
http://www.bom.gov.au/fwo/IDQ60901/IDQ60901.94549.json